Zima, Russia
Current Conditions -  °F | °C
As of 11:30 AM on Saturday 29 Nov 2014 (Local Time) from UIBB Reporting Station
Broken Clouds Broken Clouds  
Wind Chill: -42°   Ceiling: 20000
Heat Index: -22°   Visibility: 6mi
Dew Point: -33°   Wind: 9mph
Humidity: 57%   Direction: 310°NW
Pressure: 30.56"   Gusts: NA
Location:  53.93°N, 102.04°E
Report Text: UIBB 290330Z 31004MPS 9999 BKN200 M30/M36 Q1035 NOSIG RMKQFE733/0977 30820550
Loading
Personal Weather Stations






























Interactive Weather Map New forecast layout! Learn more

10-Day Weather Forecast

Advertisements
Track Severe Weather on mobile